sensor_id;sensor_type;location;lat;lon;timestamp;P1;durP1;ratioP1;P2;durP2;ratioP2
54977;SDS011;40873;47.522;19.106;2023-04-24T00:01:17;6.82;;;5.38;;
54977;SDS011;40873;47.522;19.106;2023-04-24T00:03:46;10.45;;;5.55;;
54977;SDS011;40873;47.522;19.106;2023-04-24T00:06:13;9.45;;;5.63;;
54977;SDS011;40873;47.522;19.106;2023-04-24T00:08:40;8.23;;;6.00;;
54977;SDS011;40873;47.522;19.106;2023-04-24T00:11:07;9.13;;;5.95;;
54977;SDS011;40873;47.522;19.106;2023-04-24T00:13:35;11.48;;;6.43;;
54977;SDS011;40873;47.522;19.106;2023-04-24T00:16:03;8.25;;;5.70;;
54977;SDS011;40873;47.522;19.106;2023-04-24T00:18:30;10.05;;;5.70;;
54977;SDS011;40873;47.522;19.106;2023-04-24T00:20:57;13.00;;;6.20;;
54977;SDS011;40873;47.522;19.106;2023-04-24T00:23:27;15.45;;;5.88;;
54977;SDS011;40873;47.522;19.106;2023-04-24T00:25:54;8.20;;;5.28;;
54977;SDS011;40873;47.522;19.106;2023-04-24T00:28:21;10.85;;;6.22;;
54977;SDS011;40873;47.522;19.106;2023-04-24T00:30:48;9.85;;;5.65;;
54977;SDS011;40873;47.522;19.106;2023-04-24T00:33:15;9.23;;;5.63;;
54977;SDS011;40873;47.522;19.106;2023-04-24T00:35:42;11.45;;;6.97;;
54977;SDS011;40873;47.522;19.106;2023-04-24T00:38:09;10.82;;;6.72;;
54977;SDS011;40873;47.522;19.106;2023-04-24T00:40:36;8.93;;;5.93;;
54977;SDS011;40873;47.522;19.106;2023-04-24T00:43:03;12.32;;;6.78;;
54977;SDS011;40873;47.522;19.106;2023-04-24T00:45:30;10.15;;;6.72;;
54977;SDS011;40873;47.522;19.106;2023-04-24T00:47:58;11.70;;;5.97;;
54977;SDS011;40873;47.522;19.106;2023-04-24T00:50:26;8.80;;;5.63;;
54977;SDS011;40873;47.522;19.106;2023-04-24T00:52:54;11.77;;;6.57;;
54977;SDS011;40873;47.522;19.106;2023-04-24T00:55:21;10.13;;;6.05;;
54977;SDS011;40873;47.522;19.106;2023-04-24T00:57:49;6.43;;;5.28;;
54977;SDS011;40873;47.522;19.106;2023-04-24T01:00:16;7.50;;;5.22;;
54977;SDS011;40873;47.522;19.106;2023-04-24T01:02:44;11.18;;;5.65;;
54977;SDS011;40873;47.522;19.106;2023-04-24T01:05:13;10.27;;;5.78;;
54977;SDS011;40873;47.522;19.106;2023-04-24T01:07:43;8.65;;;5.50;;
54977;SDS011;40873;47.522;19.106;2023-04-24T01:10:12;11.25;;;6.15;;
54977;SDS011;40873;47.522;19.106;2023-04-24T01:12:41;9.25;;;5.47;;
54977;SDS011;40873;47.522;19.106;2023-04-24T01:15:08;10.18;;;6.15;;
54977;SDS011;40873;47.522;19.106;2023-04-24T01:17:35;7.85;;;5.53;;
54977;SDS011;40873;47.522;19.106;2023-04-24T01:20:02;8.20;;;5.25;;
54977;SDS011;40873;47.522;19.106;2023-04-24T01:22:33;9.38;;;5.50;;
54977;SDS011;40873;47.522;19.106;2023-04-24T01:25:01;6.93;;;5.55;;
54977;SDS011;40873;47.522;19.106;2023-04-24T01:27:29;13.30;;;6.30;;
54977;SDS011;40873;47.522;19.106;2023-04-24T01:29:56;11.18;;;6.10;;
54977;SDS011;40873;47.522;19.106;2023-04-24T01:32:24;10.88;;;5.90;;
54977;SDS011;40873;47.522;19.106;2023-04-24T01:34:52;7.65;;;5.50;;
54977;SDS011;40873;47.522;19.106;2023-04-24T01:37:22;15.50;;;5.78;;
54977;SDS011;40873;47.522;19.106;2023-04-24T01:39:49;8.90;;;5.75;;
54977;SDS011;40873;47.522;19.106;2023-04-24T01:42:16;9.75;;;6.22;;
54977;SDS011;40873;47.522;19.106;2023-04-24T01:44:43;11.93;;;6.03;;
54977;SDS011;40873;47.522;19.106;2023-04-24T01:47:11;10.77;;;6.45;;
54977;SDS011;40873;47.522;19.106;2023-04-24T01:49:38;16.10;;;6.18;;
54977;SDS011;40873;47.522;19.106;2023-04-24T01:52:06;9.32;;;5.90;;
54977;SDS011;40873;47.522;19.106;2023-04-24T01:54:33;12.10;;;7.32;;
54977;SDS011;40873;47.522;19.106;2023-04-24T01:57:01;10.10;;;6.38;;
54977;SDS011;40873;47.522;19.106;2023-04-24T01:59:29;10.15;;;6.30;;
54977;SDS011;40873;47.522;19.106;2023-04-24T02:01:57;10.88;;;6.25;;
54977;SDS011;40873;47.522;19.106;2023-04-24T02:04:23;9.77;;;7.35;;
54977;SDS011;40873;47.522;19.106;2023-04-24T02:06:51;9.43;;;7.05;;
54977;SDS011;40873;47.522;19.106;2023-04-24T02:09:18;12.65;;;7.15;;
54977;SDS011;40873;47.522;19.106;2023-04-24T02:11:45;14.43;;;7.78;;
54977;SDS011;40873;47.522;19.106;2023-04-24T02:14:12;9.77;;;7.55;;
54977;SDS011;40873;47.522;19.106;2023-04-24T02:16:39;9.52;;;7.65;;
54977;SDS011;40873;47.522;19.106;2023-04-24T02:19:06;11.25;;;8.35;;
54977;SDS011;40873;47.522;19.106;2023-04-24T02:21:33;17.50;;;8.98;;
54977;SDS011;40873;47.522;19.106;2023-04-24T02:24:00;14.35;;;9.18;;
54977;SDS011;40873;47.522;19.106;2023-04-24T02:26:28;16.77;;;9.27;;
54977;SDS011;40873;47.522;19.106;2023-04-24T02:28:54;15.80;;;8.45;;
54977;SDS011;40873;47.522;19.106;2023-04-24T02:31:24;13.05;;;9.32;;
54977;SDS011;40873;47.522;19.106;2023-04-24T02:33:51;10.88;;;7.25;;
54977;SDS011;40873;47.522;19.106;2023-04-24T02:36:18;11.55;;;8.55;;
54977;SDS011;40873;47.522;19.106;2023-04-24T02:38:45;13.60;;;8.77;;
54977;SDS011;40873;47.522;19.106;2023-04-24T02:41:12;11.50;;;8.23;;
54977;SDS011;40873;47.522;19.106;2023-04-24T02:43:39;14.38;;;9.52;;
54977;SDS011;40873;47.522;19.106;2023-04-24T02:46:06;12.88;;;9.27;;
54977;SDS011;40873;47.522;19.106;2023-04-24T02:48:33;13.77;;;9.63;;
54977;SDS011;40873;47.522;19.106;2023-04-24T02:51:00;10.27;;;7.63;;
54977;SDS011;40873;47.522;19.106;2023-04-24T02:53:27;14.50;;;9.50;;
54977;SDS011;40873;47.522;19.106;2023-04-24T02:55:56;13.98;;;9.82;;
54977;SDS011;40873;47.522;19.106;2023-04-24T02:58:23;15.95;;;9.93;;
54977;SDS011;40873;47.522;19.106;2023-04-24T03:00:54;16.92;;;10.45;;
54977;SDS011;40873;47.522;19.106;2023-04-24T03:05:52;13.30;;;10.02;;
54977;SDS011;40873;47.522;19.106;2023-04-24T03:08:18;16.55;;;9.88;;
54977;SDS011;40873;47.522;19.106;2023-04-24T03:10:46;16.80;;;9.98;;
54977;SDS011;40873;47.522;19.106;2023-04-24T03:13:13;15.50;;;10.73;;
54977;SDS011;40873;47.522;19.106;2023-04-24T03:15:42;15.60;;;9.60;;
54977;SDS011;40873;47.522;19.106;2023-04-24T03:18:09;16.77;;;10.50;;
54977;SDS011;40873;47.522;19.106;2023-04-24T03:20:36;17.80;;;11.10;;
54977;SDS011;40873;47.522;19.106;2023-04-24T03:23:03;16.20;;;9.98;;
54977;SDS011;40873;47.522;19.106;2023-04-24T03:25:31;16.50;;;10.38;;
54977;SDS011;40873;47.522;19.106;2023-04-24T03:27:57;16.00;;;10.25;;
54977;SDS011;40873;47.522;19.106;2023-04-24T03:30:25;13.25;;;9.85;;
54977;SDS011;40873;47.522;19.106;2023-04-24T03:32:51;19.02;;;10.63;;
54977;SDS011;40873;47.522;19.106;2023-04-24T03:35:19;14.48;;;9.48;;
54977;SDS011;40873;47.522;19.106;2023-04-24T03:37:46;12.05;;;8.35;;
54977;SDS011;40873;47.522;19.106;2023-04-24T03:40:13;13.95;;;9.95;;
54977;SDS011;40873;47.522;19.106;2023-04-24T03:42:39;14.93;;;9.65;;
54977;SDS011;40873;47.522;19.106;2023-04-24T03:45:07;14.27;;;8.68;;
54977;SDS011;40873;47.522;19.106;2023-04-24T03:47:34;13.20;;;9.55;;
54977;SDS011;40873;47.522;19.106;2023-04-24T03:50:02;13.60;;;10.18;;
54977;SDS011;40873;47.522;19.106;2023-04-24T03:52:29;15.75;;;9.60;;
54977;SDS011;40873;47.522;19.106;2023-04-24T03:54:56;16.70;;;10.60;;
54977;SDS011;40873;47.522;19.106;2023-04-24T03:57:22;15.25;;;10.35;;
54977;SDS011;40873;47.522;19.106;2023-04-24T03:59:50;14.15;;;10.32;;
54977;SDS011;40873;47.522;19.106;2023-04-24T04:02:17;14.50;;;9.35;;
54977;SDS011;40873;47.522;19.106;2023-04-24T04:04:44;19.30;;;9.48;;
54977;SDS011;40873;47.522;19.106;2023-04-24T04:07:12;13.73;;;9.80;;
54977;SDS011;40873;47.522;19.106;2023-04-24T04:09:39;15.10;;;10.30;;
54977;SDS011;40873;47.522;19.106;2023-04-24T04:12:07;16.92;;;10.38;;
54977;SDS011;40873;47.522;19.106;2023-04-24T04:14:34;14.00;;;9.88;;
54977;SDS011;40873;47.522;19.106;2023-04-24T04:17:01;15.57;;;11.45;;
54977;SDS011;40873;47.522;19.106;2023-04-24T04:19:28;15.65;;;11.10;;
54977;SDS011;40873;47.522;19.106;2023-04-24T04:21:55;14.70;;;10.65;;
54977;SDS011;40873;47.522;19.106;2023-04-24T04:24:22;17.17;;;11.85;;
54977;SDS011;40873;47.522;19.106;2023-04-24T04:26:51;20.88;;;11.65;;
54977;SDS011;40873;47.522;19.106;2023-04-24T04:29:18;14.85;;;9.93;;
54977;SDS011;40873;47.522;19.106;2023-04-24T04:31:45;14.13;;;10.07;;
54977;SDS011;40873;47.522;19.106;2023-04-24T04:34:13;17.23;;;10.25;;
54977;SDS011;40873;47.522;19.106;2023-04-24T04:36:40;12.77;;;10.63;;
54977;SDS011;40873;47.522;19.106;2023-04-24T04:39:09;21.10;;;10.23;;
54977;SDS011;40873;47.522;19.106;2023-04-24T04:41:36;16.80;;;10.73;;
54977;SDS011;40873;47.522;19.106;2023-04-24T04:44:04;16.90;;;10.23;;
54977;SDS011;40873;47.522;19.106;2023-04-24T04:46:31;16.58;;;10.95;;
54977;SDS011;40873;47.522;19.106;2023-04-24T04:49:03;15.80;;;10.10;;
54977;SDS011;40873;47.522;19.106;2023-04-24T04:51:31;18.48;;;10.05;;
54977;SDS011;40873;47.522;19.106;2023-04-24T04:53:58;14.48;;;10.30;;
54977;SDS011;40873;47.522;19.106;2023-04-24T04:56:25;12.68;;;9.30;;
54977;SDS011;40873;47.522;19.106;2023-04-24T04:58:52;15.48;;;9.80;;
54977;SDS011;40873;47.522;19.106;2023-04-24T05:01:19;12.82;;;10.27;;
54977;SDS011;40873;47.522;19.106;2023-04-24T05:03:46;16.60;;;9.52;;
54977;SDS011;40873;47.522;19.106;2023-04-24T05:06:13;14.50;;;9.52;;
54977;SDS011;40873;47.522;19.106;2023-04-24T05:08:41;11.60;;;8.82;;
54977;SDS011;40873;47.522;19.106;2023-04-24T05:11:09;16.45;;;10.40;;
54977;SDS011;40873;47.522;19.106;2023-04-24T05:13:36;16.23;;;10.38;;
54977;SDS011;40873;47.522;19.106;2023-04-24T05:16:06;14.30;;;10.52;;
54977;SDS011;40873;47.522;19.106;2023-04-24T05:18:34;16.45;;;11.15;;
54977;SDS011;40873;47.522;19.106;2023-04-24T05:21:01;13.27;;;9.38;;
54977;SDS011;40873;47.522;19.106;2023-04-24T05:23:31;12.20;;;8.30;;
54977;SDS011;40873;47.522;19.106;2023-04-24T05:25:57;16.05;;;9.77;;
54977;SDS011;40873;47.522;19.106;2023-04-24T05:28:25;13.40;;;8.98;;
54977;SDS011;40873;47.522;19.106;2023-04-24T05:30:55;14.15;;;8.57;;
54977;SDS011;40873;47.522;19.106;2023-04-24T05:33:23;13.70;;;9.60;;
54977;SDS011;40873;47.522;19.106;2023-04-24T05:35:50;13.43;;;8.73;;
54977;SDS011;40873;47.522;19.106;2023-04-24T05:38:18;13.30;;;8.10;;
54977;SDS011;40873;47.522;19.106;2023-04-24T05:40:45;10.60;;;7.18;;
54977;SDS011;40873;47.522;19.106;2023-04-24T05:43:13;15.43;;;7.90;;
54977;SDS011;40873;47.522;19.106;2023-04-24T05:45:39;11.43;;;8.02;;
54977;SDS011;40873;47.522;19.106;2023-04-24T05:48:06;12.32;;;8.32;;
54977;SDS011;40873;47.522;19.106;2023-04-24T05:50:33;10.82;;;7.22;;
54977;SDS011;40873;47.522;19.106;2023-04-24T05:53:03;11.05;;;6.82;;
54977;SDS011;40873;47.522;19.106;2023-04-24T05:55:30;9.23;;;6.55;;
54977;SDS011;40873;47.522;19.106;2023-04-24T05:57:58;9.60;;;7.38;;
54977;SDS011;40873;47.522;19.106;2023-04-24T06:00:25;10.50;;;7.03;;
54977;SDS011;40873;47.522;19.106;2023-04-24T06:02:53;11.10;;;7.30;;
54977;SDS011;40873;47.522;19.106;2023-04-24T06:05:21;13.30;;;7.38;;
54977;SDS011;40873;47.522;19.106;2023-04-24T06:07:48;12.30;;;7.88;;
54977;SDS011;40873;47.522;19.106;2023-04-24T06:10:15;13.20;;;8.23;;
54977;SDS011;40873;47.522;19.106;2023-04-24T06:12:42;12.18;;;7.15;;
54977;SDS011;40873;47.522;19.106;2023-04-24T06:15:09;13.30;;;7.93;;
54977;SDS011;40873;47.522;19.106;2023-04-24T06:17:36;12.85;;;7.70;;
54977;SDS011;40873;47.522;19.106;2023-04-24T06:20:04;17.45;;;8.57;;
54977;SDS011;40873;47.522;19.106;2023-04-24T06:22:32;16.52;;;7.70;;
54977;SDS011;40873;47.522;19.106;2023-04-24T06:24:59;18.35;;;9.30;;
54977;SDS011;40873;47.522;19.106;2023-04-24T06:27:27;12.52;;;8.32;;
54977;SDS011;40873;47.522;19.106;2023-04-24T06:29:54;17.48;;;8.52;;
54977;SDS011;40873;47.522;19.106;2023-04-24T06:32:24;15.25;;;8.30;;
54977;SDS011;40873;47.522;19.106;2023-04-24T06:34:52;12.45;;;7.53;;
54977;SDS011;40873;47.522;19.106;2023-04-24T06:37:22;11.00;;;7.53;;
54977;SDS011;40873;47.522;19.106;2023-04-24T06:39:49;14.18;;;8.27;;
54977;SDS011;40873;47.522;19.106;2023-04-24T06:42:16;12.18;;;8.32;;
54977;SDS011;40873;47.522;19.106;2023-04-24T06:44:43;15.73;;;8.73;;
54977;SDS011;40873;47.522;19.106;2023-04-24T06:47:11;17.65;;;8.80;;
54977;SDS011;40873;47.522;19.106;2023-04-24T06:49:40;11.88;;;8.35;;
54977;SDS011;40873;47.522;19.106;2023-04-24T06:52:08;13.27;;;8.32;;
54977;SDS011;40873;47.522;19.106;2023-04-24T06:54:36;14.85;;;8.77;;
54977;SDS011;40873;47.522;19.106;2023-04-24T06:57:02;14.90;;;8.57;;
54977;SDS011;40873;47.522;19.106;2023-04-24T06:59:30;15.77;;;8.93;;
54977;SDS011;40873;47.522;19.106;2023-04-24T07:01:57;15.88;;;9.13;;
54977;SDS011;40873;47.522;19.106;2023-04-24T07:04:24;24.08;;;10.07;;
54977;SDS011;40873;47.522;19.106;2023-04-24T07:06:52;14.38;;;8.75;;
54977;SDS011;40873;47.522;19.106;2023-04-24T07:09:23;12.65;;;8.55;;
54977;SDS011;40873;47.522;19.106;2023-04-24T07:11:52;11.15;;;8.60;;
54977;SDS011;40873;47.522;19.106;2023-04-24T07:14:20;16.98;;;8.80;;
54977;SDS011;40873;47.522;19.106;2023-04-24T07:16:47;15.90;;;9.75;;
54977;SDS011;40873;47.522;19.106;2023-04-24T07:19:14;13.07;;;8.65;;
54977;SDS011;40873;47.522;19.106;2023-04-24T07:21:41;12.80;;;9.45;;
54977;SDS011;40873;47.522;19.106;2023-04-24T07:24:08;14.38;;;8.43;;
54977;SDS011;40873;47.522;19.106;2023-04-24T07:26:37;12.80;;;8.63;;
54977;SDS011;40873;47.522;19.106;2023-04-24T07:29:05;12.05;;;8.65;;
54977;SDS011;40873;47.522;19.106;2023-04-24T07:31:33;11.75;;;7.38;;
54977;SDS011;40873;47.522;19.106;2023-04-24T07:34:00;13.95;;;9.57;;
54977;SDS011;40873;47.522;19.106;2023-04-24T07:36:27;15.45;;;9.45;;
54977;SDS011;40873;47.522;19.106;2023-04-24T07:38:55;18.17;;;10.15;;
54977;SDS011;40873;47.522;19.106;2023-04-24T07:41:23;17.63;;;9.38;;
54977;SDS011;40873;47.522;19.106;2023-04-24T07:43:51;13.32;;;8.75;;
54977;SDS011;40873;47.522;19.106;2023-04-24T07:46:20;14.77;;;8.43;;
54977;SDS011;40873;47.522;19.106;2023-04-24T07:48:47;13.10;;;8.65;;
54977;SDS011;40873;47.522;19.106;2023-04-24T07:51:27;16.55;;;8.18;;
54977;SDS011;40873;47.522;19.106;2023-04-24T07:53:54;17.13;;;9.30;;
54977;SDS011;40873;47.522;19.106;2023-04-24T07:56:21;14.00;;;9.25;;
54977;SDS011;40873;47.522;19.106;2023-04-24T07:58:53;11.80;;;8.98;;
54977;SDS011;40873;47.522;19.106;2023-04-24T08:01:20;13.35;;;9.07;;
54977;SDS011;40873;47.522;19.106;2023-04-24T08:03:47;13.27;;;8.35;;
54977;SDS011;40873;47.522;19.106;2023-04-24T08:06:14;10.80;;;7.55;;
54977;SDS011;40873;47.522;19.106;2023-04-24T08:08:42;13.07;;;8.55;;
54977;SDS011;40873;47.522;19.106;2023-04-24T08:11:08;12.27;;;8.20;;
54977;SDS011;40873;47.522;19.106;2023-04-24T08:13:36;15.77;;;8.48;;
54977;SDS011;40873;47.522;19.106;2023-04-24T08:16:02;11.80;;;8.45;;
54977;SDS011;40873;47.522;19.106;2023-04-24T08:18:33;12.10;;;8.18;;
54977;SDS011;40873;47.522;19.106;2023-04-24T08:21:01;12.82;;;8.88;;
54977;SDS011;40873;47.522;19.106;2023-04-24T08:23:28;15.35;;;7.95;;
54977;SDS011;40873;47.522;19.106;2023-04-24T08:25:56;10.65;;;5.28;;
54977;SDS011;40873;47.522;19.106;2023-04-24T08:28:23;13.93;;;9.13;;
54977;SDS011;40873;47.522;19.106;2023-04-24T08:30:50;12.73;;;7.15;;
54977;SDS011;40873;47.522;19.106;2023-04-24T08:33:22;13.70;;;8.68;;
54977;SDS011;40873;47.522;19.106;2023-04-24T08:35:49;15.65;;;8.73;;
54977;SDS011;40873;47.522;19.106;2023-04-24T08:38:16;15.60;;;8.98;;
54977;SDS011;40873;47.522;19.106;2023-04-24T08:40:43;12.68;;;7.53;;
54977;SDS011;40873;47.522;19.106;2023-04-24T08:43:12;12.43;;;6.07;;
54977;SDS011;40873;47.522;19.106;2023-04-24T08:45:41;11.93;;;8.15;;
54977;SDS011;40873;47.522;19.106;2023-04-24T08:48:08;17.50;;;10.70;;
54977;SDS011;40873;47.522;19.106;2023-04-24T08:50:53;9.80;;;7.72;;
54977;SDS011;40873;47.522;19.106;2023-04-24T08:53:20;13.00;;;7.40;;
54977;SDS011;40873;47.522;19.106;2023-04-24T08:55:47;12.23;;;7.70;;
54977;SDS011;40873;47.522;19.106;2023-04-24T08:58:18;10.85;;;7.97;;
54977;SDS011;40873;47.522;19.106;2023-04-24T09:00:45;9.18;;;6.13;;
54977;SDS011;40873;47.522;19.106;2023-04-24T09:03:15;11.82;;;6.90;;
54977;SDS011;40873;47.522;19.106;2023-04-24T09:05:44;10.77;;;7.57;;
54977;SDS011;40873;47.522;19.106;2023-04-24T09:08:14;10.27;;;8.02;;
54977;SDS011;40873;47.522;19.106;2023-04-24T09:10:42;10.55;;;7.28;;
54977;SDS011;40873;47.522;19.106;2023-04-24T09:13:10;7.53;;;5.28;;
54977;SDS011;40873;47.522;19.106;2023-04-24T09:15:37;8.50;;;5.65;;
54977;SDS011;40873;47.522;19.106;2023-04-24T09:18:05;11.88;;;6.97;;
54977;SDS011;40873;47.522;19.106;2023-04-24T09:20:32;10.10;;;7.05;;
54977;SDS011;40873;47.522;19.106;2023-04-24T09:23:01;10.48;;;7.28;;
54977;SDS011;40873;47.522;19.106;2023-04-24T09:25:32;11.88;;;6.35;;
54977;SDS011;40873;47.522;19.106;2023-04-24T09:28:01;7.68;;;5.75;;
54977;SDS011;40873;47.522;19.106;2023-04-24T09:30:29;9.43;;;6.50;;
54977;SDS011;40873;47.522;19.106;2023-04-24T09:33:14;8.73;;;5.45;;
54977;SDS011;40873;47.522;19.106;2023-04-24T09:35:42;13.07;;;5.80;;
54977;SDS011;40873;47.522;19.106;2023-04-24T09:38:16;7.00;;;5.22;;
54977;SDS011;40873;47.522;19.106;2023-04-24T09:40:43;9.38;;;5.95;;
54977;SDS011;40873;47.522;19.106;2023-04-24T09:43:11;9.70;;;5.93;;
54977;SDS011;40873;47.522;19.106;2023-04-24T09:45:38;7.60;;;4.78;;
54977;SDS011;40873;47.522;19.106;2023-04-24T09:48:09;7.75;;;5.05;;
54977;SDS011;40873;47.522;19.106;2023-04-24T09:50:37;12.07;;;6.32;;
54977;SDS011;40873;47.522;19.106;2023-04-24T09:53:05;7.15;;;4.90;;
54977;SDS011;40873;47.522;19.106;2023-04-24T09:55:42;12.23;;;5.60;;
54977;SDS011;40873;47.522;19.106;2023-04-24T09:58:12;11.20;;;5.32;;
54977;SDS011;40873;47.522;19.106;2023-04-24T10:00:39;8.32;;;5.13;;
54977;SDS011;40873;47.522;19.106;2023-04-24T10:03:07;8.27;;;4.35;;
54977;SDS011;40873;47.522;19.106;2023-04-24T10:05:35;11.88;;;5.38;;
54977;SDS011;40873;47.522;19.106;2023-04-24T10:10:32;8.68;;;4.95;;
54977;SDS011;40873;47.522;19.106;2023-04-24T10:13:00;8.45;;;5.18;;
54977;SDS011;40873;47.522;19.106;2023-04-24T10:15:27;5.45;;;3.88;;
54977;SDS011;40873;47.522;19.106;2023-04-24T10:17:55;7.28;;;4.90;;
54977;SDS011;40873;47.522;19.106;2023-04-24T10:20:26;6.63;;;3.42;;
54977;SDS011;40873;47.522;19.106;2023-04-24T10:22:56;4.50;;;3.58;;
54977;SDS011;40873;47.522;19.106;2023-04-24T10:25:25;7.47;;;3.88;;
54977;SDS011;40873;47.522;19.106;2023-04-24T10:27:56;5.93;;;3.75;;
54977;SDS011;40873;47.522;19.106;2023-04-24T10:30:32;7.65;;;4.72;;
54977;SDS011;40873;47.522;19.106;2023-04-24T10:33:05;5.88;;;4.03;;
54977;SDS011;40873;47.522;19.106;2023-04-24T10:35:36;11.25;;;4.57;;
54977;SDS011;40873;47.522;19.106;2023-04-24T10:38:08;3.13;;;2.70;;
54977;SDS011;40873;47.522;19.106;2023-04-24T10:40:38;8.25;;;3.72;;
54977;SDS011;40873;47.522;19.106;2023-04-24T10:43:06;7.47;;;4.65;;
54977;SDS011;40873;47.522;19.106;2023-04-24T10:45:36;5.95;;;4.22;;
54977;SDS011;40873;47.522;19.106;2023-04-24T10:48:05;10.02;;;4.95;;
54977;SDS011;40873;47.522;19.106;2023-04-24T10:50:47;9.90;;;5.20;;
54977;SDS011;40873;47.522;19.106;2023-04-24T10:53:18;8.30;;;5.50;;
54977;SDS011;40873;47.522;19.106;2023-04-24T10:55:48;7.82;;;5.07;;
54977;SDS011;40873;47.522;19.106;2023-04-24T10:58:21;9.93;;;5.95;;
54977;SDS011;40873;47.522;19.106;2023-04-24T11:00:55;7.20;;;4.40;;
54977;SDS011;40873;47.522;19.106;2023-04-24T11:03:29;7.72;;;5.50;;
54977;SDS011;40873;47.522;19.106;2023-04-24T11:06:05;8.52;;;6.03;;
54977;SDS011;40873;47.522;19.106;2023-04-24T11:08:38;10.48;;;6.45;;
54977;SDS011;40873;47.522;19.106;2023-04-24T11:11:12;10.23;;;6.55;;
54977;SDS011;40873;47.522;19.106;2023-04-24T11:16:28;9.45;;;6.25;;
54977;SDS011;40873;47.522;19.106;2023-04-24T11:19:03;7.80;;;5.57;;
54977;SDS011;40873;47.522;19.106;2023-04-24T11:21:47;11.98;;;6.60;;
54977;SDS011;40873;47.522;19.106;2023-04-24T11:24:31;11.63;;;4.22;;
54977;SDS011;40873;47.522;19.106;2023-04-24T11:27:16;11.55;;;6.32;;
54977;SDS011;40873;47.522;19.106;2023-04-24T11:29:52;11.50;;;6.30;;
54977;SDS011;40873;47.522;19.106;2023-04-24T11:32:27;9.27;;;6.45;;
54977;SDS011;40873;47.522;19.106;2023-04-24T11:35:05;10.77;;;6.18;;
54977;SDS011;40873;47.522;19.106;2023-04-24T11:37:35;8.98;;;5.15;;
54977;SDS011;40873;47.522;19.106;2023-04-24T11:40:08;7.50;;;5.67;;
54977;SDS011;40873;47.522;19.106;2023-04-24T11:42:37;9.05;;;5.93;;
54977;SDS011;40873;47.522;19.106;2023-04-24T11:45:09;10.85;;;7.75;;
54977;SDS011;40873;47.522;19.106;2023-04-24T11:47:41;11.68;;;6.97;;
54977;SDS011;40873;47.522;19.106;2023-04-24T11:50:10;9.85;;;7.22;;
54977;SDS011;40873;47.522;19.106;2023-04-24T11:52:42;11.70;;;8.13;;
54977;SDS011;40873;47.522;19.106;2023-04-24T11:57:42;10.82;;;6.70;;
54977;SDS011;40873;47.522;19.106;2023-04-24T12:00:17;12.05;;;7.68;;
54977;SDS011;40873;47.522;19.106;2023-04-24T12:02:46;10.52;;;7.10;;
54977;SDS011;40873;47.522;19.106;2023-04-24T12:05:25;19.75;;;6.72;;
54977;SDS011;40873;47.522;19.106;2023-04-24T12:07:56;5.60;;;5.05;;
54977;SDS011;40873;47.522;19.106;2023-04-24T12:10:26;13.13;;;7.13;;
54977;SDS011;40873;47.522;19.106;2023-04-24T12:12:55;11.32;;;7.40;;
54977;SDS011;40873;47.522;19.106;2023-04-24T12:15:23;9.93;;;6.03;;
54977;SDS011;40873;47.522;19.106;2023-04-24T12:17:51;12.13;;;7.45;;
54977;SDS011;40873;47.522;19.106;2023-04-24T12:20:30;12.30;;;7.63;;
54977;SDS011;40873;47.522;19.106;2023-04-24T12:22:58;15.70;;;7.25;;
54977;SDS011;40873;47.522;19.106;2023-04-24T12:25:38;8.27;;;5.13;;
54977;SDS011;40873;47.522;19.106;2023-04-24T12:30:41;10.10;;;5.38;;
54977;SDS011;40873;47.522;19.106;2023-04-24T12:33:18;5.57;;;3.97;;
54977;SDS011;40873;47.522;19.106;2023-04-24T12:35:47;11.95;;;5.95;;
54977;SDS011;40873;47.522;19.106;2023-04-24T12:38:15;10.77;;;6.30;;
54977;SDS011;40873;47.522;19.106;2023-04-24T12:40:43;7.82;;;4.65;;
54977;SDS011;40873;47.522;19.106;2023-04-24T12:43:13;9.95;;;7.05;;
54977;SDS011;40873;47.522;19.106;2023-04-24T12:45:42;11.90;;;7.53;;
54977;SDS011;40873;47.522;19.106;2023-04-24T12:48:09;12.20;;;7.85;;
54977;SDS011;40873;47.522;19.106;2023-04-24T12:50:37;10.85;;;6.35;;
54977;SDS011;40873;47.522;19.106;2023-04-24T12:53:05;15.38;;;7.72;;
54977;SDS011;40873;47.522;19.106;2023-04-24T12:55:33;11.07;;;6.70;;
54977;SDS011;40873;47.522;19.106;2023-04-24T12:58:00;9.00;;;5.15;;
54977;SDS011;40873;47.522;19.106;2023-04-24T13:00:30;6.78;;;4.95;;
54977;SDS011;40873;47.522;19.106;2023-04-24T13:02:57;5.60;;;4.72;;
54977;SDS011;40873;47.522;19.106;2023-04-24T13:05:24;9.10;;;4.93;;
54977;SDS011;40873;47.522;19.106;2023-04-24T13:07:51;7.25;;;4.60;;
54977;SDS011;40873;47.522;19.106;2023-04-24T13:10:18;9.68;;;5.65;;
54977;SDS011;40873;47.522;19.106;2023-04-24T13:12:45;9.23;;;5.55;;
54977;SDS011;40873;47.522;19.106;2023-04-24T13:15:13;7.75;;;4.10;;
54977;SDS011;40873;47.522;19.106;2023-04-24T13:17:40;9.45;;;4.90;;
54977;SDS011;40873;47.522;19.106;2023-04-24T13:20:07;6.97;;;3.63;;
54977;SDS011;40873;47.522;19.106;2023-04-24T13:22:34;7.25;;;3.85;;
54977;SDS011;40873;47.522;19.106;2023-04-24T13:25:02;7.63;;;3.92;;
54977;SDS011;40873;47.522;19.106;2023-04-24T13:27:32;10.68;;;4.53;;
54977;SDS011;40873;47.522;19.106;2023-04-24T13:29:59;5.82;;;1.77;;
54977;SDS011;40873;47.522;19.106;2023-04-24T13:32:26;6.32;;;4.22;;
54977;SDS011;40873;47.522;19.106;2023-04-24T13:34:56;8.57;;;4.97;;
54977;SDS011;40873;47.522;19.106;2023-04-24T13:37:23;7.05;;;3.25;;
54977;SDS011;40873;47.522;19.106;2023-04-24T13:39:50;5.90;;;3.45;;
54977;SDS011;40873;47.522;19.106;2023-04-24T13:42:17;5.70;;;2.25;;
54977;SDS011;40873;47.522;19.106;2023-04-24T13:44:45;5.47;;;3.63;;
54977;SDS011;40873;47.522;19.106;2023-04-24T13:47:12;5.60;;;3.45;;
54977;SDS011;40873;47.522;19.106;2023-04-24T13:49:39;5.63;;;3.25;;
54977;SDS011;40873;47.522;19.106;2023-04-24T13:52:06;5.03;;;3.63;;
54977;SDS011;40873;47.522;19.106;2023-04-24T13:54:33;10.00;;;3.60;;
54977;SDS011;40873;47.522;19.106;2023-04-24T13:57:01;6.65;;;4.35;;
54977;SDS011;40873;47.522;19.106;2023-04-24T13:59:29;12.95;;;4.25;;
54977;SDS011;40873;47.522;19.106;2023-04-24T14:01:56;10.55;;;4.30;;
54977;SDS011;40873;47.522;19.106;2023-04-24T14:04:24;11.32;;;5.80;;
54977;SDS011;40873;47.522;19.106;2023-04-24T14:06:51;12.57;;;6.47;;
54977;SDS011;40873;47.522;19.106;2023-04-24T14:09:18;11.30;;;5.80;;
54977;SDS011;40873;47.522;19.106;2023-04-24T14:11:45;12.70;;;6.78;;
54977;SDS011;40873;47.522;19.106;2023-04-24T14:14:12;9.80;;;5.70;;
54977;SDS011;40873;47.522;19.106;2023-04-24T14:16:39;12.07;;;6.43;;
54977;SDS011;40873;47.522;19.106;2023-04-24T14:19:06;15.32;;;7.03;;
54977;SDS011;40873;47.522;19.106;2023-04-24T14:21:33;13.68;;;6.70;;
54977;SDS011;40873;47.522;19.106;2023-04-24T14:24:00;8.68;;;5.78;;
54977;SDS011;40873;47.522;19.106;2023-04-24T14:26:27;13.25;;;6.47;;
54977;SDS011;40873;47.522;19.106;2023-04-24T14:28:57;12.68;;;8.00;;
54977;SDS011;40873;47.522;19.106;2023-04-24T14:31:39;13.10;;;6.75;;
54977;SDS011;40873;47.522;19.106;2023-04-24T14:34:07;9.73;;;5.25;;
54977;SDS011;40873;47.522;19.106;2023-04-24T14:36:35;8.93;;;5.72;;
54977;SDS011;40873;47.522;19.106;2023-04-24T14:39:02;10.73;;;5.45;;
54977;SDS011;40873;47.522;19.106;2023-04-24T14:41:33;13.93;;;6.80;;
54977;SDS011;40873;47.522;19.106;2023-04-24T14:44:04;11.57;;;6.03;;